Latest Weather Observations for Condobolin Airport

IDN60801

Issued at 12:35 pm EST Sunday 20 April 2014 (issued every 30 minutes, with the page automatically refreshed every 10 minutes)

About weather observations | Map of weather stations | Latest weather observations for NSW | Other Formats
Station Details ID: 050137 Name: CONDOBOLIN AIRPORT AWS Lat: -33.07 Lon: 147.21 Height: 192.6 m
Data from the previous 72 hours. | See also: Recent months at Condobolin Airport
Date/Time
EST
Temp
°C
App
Temp
°C
Dew
Point
Rel
Hum
%
Delta-T
°C
Wind Press
QNH
hPa
Press
MSL
hPa
Rain
since 9 am
mm
Dir
 
Spd
km/h
Gust
km/h
Spd
kts
Gust
kts
20/12:30pm 18.0 14.2 5.6 44 6.1 WSW 15 24 8 13 1018.7 - 0.0
20/12:00pm 17.4 13.4 4.7 43 6.1 WSW 15 20 8 11 1019.4 1019.1 0.0
20/11:30am 17.0 12.8 4.0 42 6.1 WSW 15 26 8 14 1020.0 - 0.0
20/11:00am 16.8 13.2 5.1 46 5.6 WSW 13 22 7 12 1020.2 - 0.0
20/10:30am 16.3 13.8 4.7 46 5.5 NW 7 15 4 8 1020.2 - 0.0
20/10:00am 15.6 14.9 6.9 56 4.3 CALM 0 7 0 4 1020.2 - 0.0
20/09:30am 14.3 13.6 6.9 61 3.6 CALM 0 0 0 0 1020.2 - 0.0
20/09:00am 13.5 13.0 7.9 69 2.8 NNW 0 6 0 3 1020.1 1019.7 0.0
20/08:30am 11.3 10.5 6.6 73 2.2 CALM 0 6 0 3 1019.9 - 0.0
20/08:00am 7.9 7.1 6.5 91 0.6 CALM 0 0 0 0 1019.6 - 0.0
20/07:30am 4.6 3.4 4.5 99 0.0 CALM 0 0 0 0 1019.4 - 0.0
20/07:00am 2.5 0.1 2.1 97 0.2 SSW 4 7 2 4 1019.2 - 0.0
20/06:30am 2.8 1.2 2.4 97 0.2 CALM 0 0 0 0 1019.1 - 0.0
20/06:00am 2.3 0.6 1.6 95 0.3 CALM 0 0 0 0 1018.9 1018.6 0.0
20/05:30am 2.9 1.3 2.3 96 0.2 SSW 0 0 0 0 1018.6 - 0.0
20/05:00am 3.5 2.0 2.8 95 0.3 CALM 0 0 0 0 1018.4 - 0.0
20/04:30am 3.7 2.2 3.1 96 0.2 CALM 0 0 0 0 1018.4 - 0.0
20/04:00am 3.2 1.5 2.0 92 0.5 CALM 0 0 0 0 1018.0 - 0.0
20/03:30am 4.1 2.6 2.9 92 0.5 CALM 0 0 0 0 1017.8 - 0.0
20/03:00am 4.3 2.8 3.0 91 0.5 CALM 0 0 0 0 1017.8 1017.5 0.0
20/02:30am 4.6 2.8 3.3 91 0.5 SSW 2 7 1 4 1017.7 - 0.0
20/02:00am 5.2 3.9 4.0 92 0.5 CALM 0 6 0 3 1017.9 - 0.0
20/01:30am 4.7 3.3 3.4 91 0.5 SSW 0 0 0 0 1018.1 - 0.0
20/01:00am 5.3 4.0 4.0 91 0.6 CALM 0 0 0 0 1018.2 - 0.0
20/12:30am 5.6 4.3 4.2 91 0.6 CALM 0 0 0 0 1018.3 - 0.0
20/12:00am 5.5 4.1 3.7 88 0.8 SSW 0 0 0 0 1018.5 1018.2 0.0
 
Date/Time
EST
Temp
°C
App
Temp
°C
Dew
Point
Rel
Hum
%
Delta-T
°C
Wind Press
QNH
hPa
Press
MSL
hPa
Rain
since 9 am
mm
Dir
 
Spd
km/h
Gust
km/h
Spd
kts
Gust
kts
19/11:30pm 5.4 3.9 3.1 85 1.0 CALM 0 0 0 0 1018.6 - 0.0
19/11:00pm 6.5 5.2 4.2 85 1.0 CALM 0 0 0 0 1018.5 - 0.0
19/10:30pm 6.8 5.5 4.3 84 1.1 CALM 0 6 0 3 1018.8 - 0.0
19/10:00pm 6.6 5.2 3.8 82 1.2 CALM 0 0 0 0 1018.8 - 0.0
19/09:30pm 7.7 6.5 4.5 80 1.4 CALM 0 0 0 0 1018.8 - 0.0
19/09:00pm 8.5 7.3 4.5 76 1.8 CALM 0 0 0 0 1018.7 1018.4 0.0
19/08:30pm 8.9 7.6 3.9 71 2.2 CALM 0 0 0 0 1018.5 - 0.0
19/08:00pm 10.5 9.4 5.3 70 2.4 CALM 0 0 0 0 1018.4 - 0.0
19/07:30pm 10.6 9.1 5.2 69 2.5 SSW 2 7 1 4 1018.3 - 0.0
19/07:00pm 11.1 8.8 5.0 66 2.8 SSW 6 7 3 4 1018.1 - 0.0
19/06:30pm 12.6 11.4 4.8 59 3.6 CALM 0 6 0 3 1017.9 - 0.0
19/06:00pm 14.0 11.0 4.3 52 4.5 SSW 9 11 5 6 1017.6 1017.3 0.0
19/05:30pm 15.2 11.9 4.3 48 5.1 SSW 11 15 6 8 1017.3 - 0.0
19/05:00pm 17.3 13.1 3.6 40 6.4 SSW 15 20 8 11 1017.1 - 0.0
19/04:30pm 18.0 13.4 3.9 39 6.7 SSW 17 24 9 13 1017.0 - 0.0
19/04:00pm 18.4 13.2 3.8 38 6.9 SW 20 26 11 14 1017.1 - 0.0
19/03:30pm 18.7 13.6 4.1 38 7.0 SSW 20 33 11 18 1017.2 - 0.0
19/03:00pm 19.0 14.2 4.7 39 6.9 SSW 19 30 10 16 1017.2 1016.9 0.0
19/02:30pm 18.4 13.5 4.2 39 6.8 SW 19 26 10 14 1017.4 - 0.0
19/02:00pm 18.7 12.6 4.8 40 6.8 WSW 26 32 14 17 1017.6 - 0.0
19/01:30pm 18.5 13.7 5.4 42 6.4 WSW 20 35 11 19 1017.8 - 0.0
19/01:00pm 18.1 12.2 3.9 39 6.7 WSW 24 32 13 17 1018.3 - 0.0
19/12:30pm 18.2 13.0 5.4 43 6.3 WSW 22 32 12 17 1018.8 - 0.0
19/12:00pm 16.9 11.9 4.6 44 5.9 SW 20 30 11 16 1019.1 1018.8 0.0
19/11:30am 17.0 11.6 4.3 43 6.0 SW 22 32 12 17 1019.5 - 0.0
19/11:00am 16.4 11.4 4.8 46 5.5 WSW 20 30 11 16 1019.9 - 0.0
19/10:30am 15.5 11.7 5.7 52 4.7 SSW 15 24 8 13 1020.0 - 0.0
19/10:00am 15.0 11.5 7.1 59 3.9 SW 15 22 8 12 1020.1 - 0.0
19/09:30am 14.4 11.2 8.4 67 3.0 SSW 15 19 8 10 1020.2 - 0.0
19/09:00am 12.8 9.3 7.3 69 2.7 SSW 15 20 8 11 1020.3 1019.9 0.0
19/08:30am 11.6 8.1 7.1 74 2.2 SW 15 20 8 11 1020.2 - 0.0
19/08:00am 10.7 8.3 7.0 78 1.8 WSW 9 11 5 6 1019.9 - 0.0
19/07:30am 9.0 7.0 7.3 89 0.8 WSW 7 9 4 5 1019.5 - 0.0
19/07:00am 7.4 5.3 5.9 90 0.7 WSW 6 7 3 4 1019.2 - 0.0
19/06:30am 6.4 3.9 4.7 89 0.7 WSW 7 9 4 5 1019.1 - 0.0
19/06:00am 7.2 4.5 5.8 91 0.6 WSW 9 11 5 6 1018.9 1018.6 0.0
19/05:30am 7.3 4.6 5.4 88 0.9 WSW 9 11 5 6 1018.8 - 0.0
19/05:00am 8.2 6.0 6.0 86 1.0 WSW 7 11 4 6 1018.6 - 0.0
19/04:30am 8.9 8.1 6.3 84 1.2 CALM 0 0 0 0 1018.5 - 0.0
19/04:00am 9.9 7.5 6.8 81 1.5 WSW 9 9 5 5 1018.4 - 0.0
19/03:30am 10.3 7.6 7.5 83 1.4 WSW 11 11 6 6 1018.4 - 0.0
19/03:00am 10.7 8.5 7.9 83 1.4 WSW 9 11 5 6 1018.3 1018.0 0.0
19/02:30am 11.3 8.9 8.5 83 1.4 WSW 11 11 6 6 1018.4 - 0.0
19/02:00am 12.0 9.6 8.5 79 1.8 SSW 11 13 6 7 1018.3 - 0.0
19/01:30am 13.2 10.1 8.7 74 2.3 SSW 15 19 8 10 1018.2 - 0.0
19/01:00am 13.4 10.5 9.8 79 1.9 SSW 15 19 8 10 1018.1 - 0.0
19/12:30am 13.9 12.7 10.3 79 1.9 SW 7 11 4 6 1017.9 - 0.0
19/12:00am 14.4 12.4 10.2 76 2.2 SSW 11 17 6 9 1017.5 1017.2 0.0
 
Date/Time
EST
Temp
°C
App
Temp
°C
Dew
Point
Rel
Hum
%
Delta-T
°C
Wind Press
QNH
hPa
Press
MSL
hPa
Rain
since 9 am
mm
Dir
 
Spd
km/h
Gust
km/h
Spd
kts
Gust
kts
18/11:30pm 14.1 11.6 9.7 75 2.3 SSW 13 17 7 9 1017.4 - 0.0
18/11:00pm 14.8 12.4 10.0 73 2.5 SSW 13 19 7 10 1017.2 - 0.0
18/10:30pm 13.6 12.2 8.9 73 2.4 SW 6 7 3 4 1017.2 - 0.0
18/10:00pm 14.5 12.9 8.9 69 2.9 SW 7 9 4 5 1017.2 - 0.0
18/09:30pm 15.6 13.7 9.1 65 3.4 SW 9 11 5 6 1017.2 - 0.0
18/09:00pm 16.6 14.3 9.1 61 3.9 SW 11 13 6 7 1017.1 1016.8 0.0
18/08:30pm 17.6 15.3 9.0 57 4.5 SW 11 13 6 7 1016.9 - 0.0
18/08:00pm 18.9 16.9 10.2 57 4.7 SW 11 20 6 11 1016.7 - 0.0
18/07:30pm 18.2 18.4 10.6 61 4.1 CALM 0 2 0 1 1016.4 - 0.0
18/07:00pm 18.7 17.4 10.0 57 4.7 SW 7 7 4 4 1016.3 - 0.0
18/06:30pm 19.3 17.7 8.9 51 5.5 SW 7 11 4 6 1016.1 - 0.0
18/06:00pm 19.7 17.3 8.7 49 5.8 WSW 11 11 6 6 1016.0 1015.6 0.0
18/05:30pm 21.3 18.3 7.9 42 7.0 WSW 13 15 7 8 1015.9 - 0.0
18/05:00pm 22.2 18.0 7.6 39 7.7 SW 19 26 10 14 1015.7 - 0.0
18/04:30pm 23.3 18.9 7.4 36 8.4 SW 20 28 11 15 1015.5 - 0.0
18/04:00pm 24.1 20.0 8.5 37 8.4 WSW 20 30 11 16 1015.4 - 0.0
18/03:30pm 22.7 18.8 7.3 37 8.1 SW 17 22 9 12 1015.4 - 0.0
18/03:00pm 24.1 18.5 7.3 34 8.9 SW 26 33 14 18 1015.5 1015.1 0.0
18/02:30pm 24.2 20.0 8.2 36 8.6 SW 20 33 11 18 1015.6 - 0.0
18/02:00pm 23.1 17.6 6.0 33 8.8 WSW 24 35 13 19 1015.8 - 0.0
18/01:30pm 23.4 18.3 6.2 33 8.9 WSW 22 39 12 21 1016.1 - 0.0
18/01:00pm 23.8 19.4 7.4 35 8.7 W 20 30 11 16 1016.4 - 0.0
18/12:30pm 22.9 18.2 9.3 42 7.4 W 24 33 13 18 1017.0 - 0.0
18/12:00pm 22.6 18.3 8.0 39 7.7 W 20 32 11 17 1017.6 1017.3 0.0
18/11:30am 22.3 19.0 9.5 44 7.0 WNW 17 22 9 12 1018.0 - 0.0
18/11:00am 21.7 19.3 10.2 48 6.3 WNW 13 20 7 11 1018.4 - 0.0
18/10:30am 20.7 18.6 9.9 50 5.9 NNW 11 15 6 8 1018.7 - 0.0
18/10:00am 19.6 18.3 11.4 59 4.5 WSW 9 11 5 6 1019.1 - 0.0
18/09:30am 17.7 17.2 12.2 70 3.1 SW 6 9 3 5 1019.3 - 0.0
18/09:00am 16.1 15.9 11.7 75 2.4 SW 4 7 2 4 1019.4 1019.1 0.0
18/08:30am 14.6 14.7 11.6 82 1.6 SW 2 7 1 4 1019.3 - 0.0
18/08:00am 12.5 12.5 9.9 84 1.3 CALM 0 4 0 2 1019.1 - 0.0
18/07:30am 9.7 9.6 9.6 99 0.1 CALM 0 0 0 0 1019.1 - 0.0
18/07:00am 7.9 7.4 7.8 99 0.0 CALM 0 0 0 0 1019.0 - 0.0
18/06:30am 7.4 6.6 6.7 95 0.3 CALM 0 0 0 0 1018.9 - 0.0
18/06:00am 7.4 6.6 6.7 95 0.3 CALM 0 0 0 0 1018.5 1018.2 0.0
18/05:30am 8.2 6.5 7.6 96 0.3 SW 6 7 3 4 1018.6 - 0.0
18/05:00am 7.9 6.1 7.1 95 0.4 SW 6 9 3 5 1018.7 - 0.0
18/04:30am 7.8 7.1 6.9 94 0.4 CALM 0 0 0 0 1018.5 - 0.0
18/04:00am 8.0 7.3 6.9 93 0.5 CALM 0 0 0 0 1018.5 - 0.0
18/03:30am 8.7 8.1 7.6 93 0.5 CALM 0 0 0 0 1018.6 - 0.0
18/03:00am 8.8 8.2 7.4 91 0.7 CALM 0 0 0 0 1018.8 1018.5 0.0
18/02:30am 9.1 8.5 7.5 90 0.8 CALM 0 0 0 0 1018.8 - 0.0
18/02:00am 9.2 8.6 7.2 87 1.0 CALM 0 0 0 0 1019.2 - 0.0
18/01:30am 9.7 9.1 7.3 85 1.1 CALM 0 0 0 0 1019.3 - 0.0
18/01:00am 10.4 9.8 7.5 82 1.4 CALM 0 0 0 0 1019.4 - 0.0
18/12:30am 12.2 10.8 9.0 81 1.6 SW 6 7 3 4 1019.4 - 0.0
18/12:00am 11.8 10.2 8.6 81 1.6 SW 7 9 4 5 1019.6 1019.3 0.0
 
Date/Time
EST
Temp
°C
App
Temp
°C
Dew
Point
Rel
Hum
%
Delta-T
°C
Wind Press
QNH
hPa
Press
MSL
hPa
Rain
since 9 am
mm
Dir
 
Spd
km/h
Gust
km/h
Spd
kts
Gust
kts
17/11:30pm 12.0 10.5 9.0 82 1.5 SW 7 9 4 5 1019.9 - 0.0
17/11:00pm 12.0 10.4 8.8 81 1.6 SW 7 9 4 5 1020.2 - 0.0
17/10:30pm 12.0 10.5 9.2 83 1.4 SW 7 9 4 5 1020.2 - 0.0
17/10:00pm 12.1 10.3 9.5 84 1.3 SW 9 9 5 5 1020.4 - 0.0
17/09:30pm 12.8 13.0 10.5 86 1.2 CALM 0 2 0 1 1020.3 - 0.0
17/09:00pm 13.0 13.2 10.4 84 1.4 CALM 0 0 0 0 1020.1 1019.7 0.0
17/08:30pm 13.4 13.5 10.0 80 1.8 CALM 0 0 0 0 1020.0 - 0.0
17/08:00pm 14.3 14.4 10.1 76 2.2 CALM 0 0 0 0 1019.9 - 0.0
17/07:30pm 14.9 14.9 9.9 72 2.6 CALM 0 0 0 0 1019.4 - 0.0
17/07:00pm 15.5 15.5 9.8 69 3.0 CALM 0 0 0 0 1019.2 - 0.0
17/06:30pm 17.3 17.1 9.2 59 4.3 CALM 0 0 0 0 1019.0 - 0.0
17/06:00pm 19.4 18.0 8.7 50 5.6 SW 6 7 3 4 1018.9 1018.6 0.0
17/05:30pm 20.7 19.3 9.0 47 6.2 SW 6 7 3 4 1018.8 - 0.0
17/05:00pm 21.9 20.1 8.1 41 7.3 SW 7 15 4 8 1018.8 - 0.0
17/04:30pm 23.1 21.5 8.8 40 7.7 SSW 7 11 4 6 1018.7 - 0.0
17/04:00pm 22.7 21.1 8.8 41 7.5 SW 7 17 4 9 1018.8 - 0.0
17/03:30pm 23.0 20.5 8.3 39 7.8 WSW 11 17 6 9 1018.8 - 0.0
17/03:00pm 22.8 20.5 7.4 37 8.1 S 9 15 5 8 1018.8 1018.5 0.0
17/02:30pm 22.6 20.3 9.0 42 7.3 SW 11 17 6 9 1019.0 - 0.0
17/02:00pm 22.4 20.2 9.2 43 7.1 SSW 11 22 6 12 1019.1 - 0.0
17/01:30pm 22.1 20.4 8.2 41 7.4 SSW 7 19 4 10 1019.2 - 0.0
17/01:00pm 22.5 20.7 9.3 43 7.2 W 9 20 5 11 1019.8 - 0.0

Other Formats:

Comma delimited format used in spreadsheet applications
http://www.bom.gov.au/fwo/IDN60801/IDN60801.95708.axf

JavaScript Object Notation format (JSON) in row-major order
http://www.bom.gov.au/fwo/IDN60801/IDN60801.95708.json